sensor_id;sensor_type;location;lat;lon;timestamp;noise_LAeq;noise_LA_min;noise_LA_max;noise_LA01;noise_LA95
66274;Laerm;58450;52.150;4.466;2023-07-20T00:00:35;38.50;32.73;47.59;;
66274;Laerm;58450;52.150;4.466;2023-07-20T00:03:12;40.41;33.53;55.56;;
66274;Laerm;58450;52.150;4.466;2023-07-20T00:05:44;38.41;33.37;49.04;;
66274;Laerm;58450;52.150;4.466;2023-07-20T00:08:12;38.09;33.67;47.51;;
66274;Laerm;58450;52.150;4.466;2023-07-20T00:10:40;38.40;33.70;47.92;;
66274;Laerm;58450;52.150;4.466;2023-07-20T00:13:08;38.60;33.27;53.52;;
66274;Laerm;58450;52.150;4.466;2023-07-20T00:15:36;38.60;33.37;54.84;;
66274;Laerm;58450;52.150;4.466;2023-07-20T00:18:04;38.61;33.50;47.81;;
66274;Laerm;58450;52.150;4.466;2023-07-20T00:20:32;38.34;32.98;48.23;;
66274;Laerm;58450;52.150;4.466;2023-07-20T00:23:01;38.55;32.85;48.91;;
66274;Laerm;58450;52.150;4.466;2023-07-20T00:25:29;38.73;33.02;48.58;;
66274;Laerm;58450;52.150;4.466;2023-07-20T00:27:57;44.10;33.48;60.54;;
66274;Laerm;58450;52.150;4.466;2023-07-20T00:30:24;39.30;33.56;58.84;;
66274;Laerm;58450;52.150;4.466;2023-07-20T00:32:52;42.79;33.44;57.81;;
66274;Laerm;58450;52.150;4.466;2023-07-20T00:35:20;39.67;32.36;57.07;;
66274;Laerm;58450;52.150;4.466;2023-07-20T00:37:47;38.01;33.30;48.26;;
66274;Laerm;58450;52.150;4.466;2023-07-20T00:40:17;38.49;33.15;48.39;;
66274;Laerm;58450;52.150;4.466;2023-07-20T00:42:45;38.33;33.01;48.63;;
66274;Laerm;58450;52.150;4.466;2023-07-20T00:45:12;39.80;33.12;58.58;;
66274;Laerm;58450;52.150;4.466;2023-07-20T00:47:40;38.07;33.25;48.76;;
66274;Laerm;58450;52.150;4.466;2023-07-20T00:50:09;38.41;33.55;48.25;;
66274;Laerm;58450;52.150;4.466;2023-07-20T00:52:38;38.03;33.10;48.52;;
66274;Laerm;58450;52.150;4.466;2023-07-20T00:55:09;38.17;32.89;48.43;;
66274;Laerm;58450;52.150;4.466;2023-07-20T00:57:38;38.36;32.51;48.33;;
66274;Laerm;58450;52.150;4.466;2023-07-20T01:00:07;38.20;33.14;48.31;;
66274;Laerm;58450;52.150;4.466;2023-07-20T01:02:35;38.16;32.76;47.17;;
66274;Laerm;58450;52.150;4.466;2023-07-20T01:05:05;38.05;32.99;48.37;;
66274;Laerm;58450;52.150;4.466;2023-07-20T01:07:37;43.97;33.09;65.47;;
66274;Laerm;58450;52.150;4.466;2023-07-20T01:10:13;39.61;33.20;60.38;;
66274;Laerm;58450;52.150;4.466;2023-07-20T01:12:51;38.17;32.68;48.46;;
66274;Laerm;58450;52.150;4.466;2023-07-20T01:15:19;38.04;33.56;47.80;;
66274;Laerm;58450;52.150;4.466;2023-07-20T01:17:47;38.16;32.54;53.68;;
66274;Laerm;58450;52.150;4.466;2023-07-20T01:20:18;38.10;32.92;47.38;;
66274;Laerm;58450;52.150;4.466;2023-07-20T01:23:20;40.60;33.25;63.47;;
66274;Laerm;58450;52.150;4.466;2023-07-20T01:26:12;37.70;32.65;49.30;;
66274;Laerm;58450;52.150;4.466;2023-07-20T01:29:24;41.38;32.59;63.03;;
66274;Laerm;58450;52.150;4.466;2023-07-20T01:32:02;42.62;33.10;63.45;;
66274;Laerm;58450;52.150;4.466;2023-07-20T01:34:35;39.01;33.37;57.09;;
66274;Laerm;58450;52.150;4.466;2023-07-20T01:37:06;38.96;32.89;51.72;;
66274;Laerm;58450;52.150;4.466;2023-07-20T01:39:35;38.96;32.88;56.26;;
66274;Laerm;58450;52.150;4.466;2023-07-20T01:42:04;38.52;33.51;48.34;;
66274;Laerm;58450;52.150;4.466;2023-07-20T01:44:32;39.23;33.48;53.87;;
66274;Laerm;58450;52.150;4.466;2023-07-20T01:47:01;39.46;32.65;56.52;;
66274;Laerm;58450;52.150;4.466;2023-07-20T01:49:29;38.55;33.27;51.04;;
66274;Laerm;58450;52.150;4.466;2023-07-20T01:51:56;40.64;33.59;57.11;;
66274;Laerm;58450;52.150;4.466;2023-07-20T01:54:24;40.26;33.06;55.21;;
66274;Laerm;58450;52.150;4.466;2023-07-20T01:56:52;38.28;33.15;47.67;;
66274;Laerm;58450;52.150;4.466;2023-07-20T01:59:19;38.98;32.73;48.01;;
66274;Laerm;58450;52.150;4.466;2023-07-20T02:01:47;38.72;32.87;49.01;;
66274;Laerm;58450;52.150;4.466;2023-07-20T02:04:16;38.96;33.35;56.74;;
66274;Laerm;58450;52.150;4.466;2023-07-20T02:06:44;38.24;33.25;47.68;;
66274;Laerm;58450;52.150;4.466;2023-07-20T02:09:11;38.22;33.14;48.77;;
66274;Laerm;58450;52.150;4.466;2023-07-20T02:11:39;37.94;33.21;47.31;;
66274;Laerm;58450;52.150;4.466;2023-07-20T02:14:07;38.35;33.12;47.71;;
66274;Laerm;58450;52.150;4.466;2023-07-20T02:16:34;38.06;32.64;47.57;;
66274;Laerm;58450;52.150;4.466;2023-07-20T02:19:02;38.43;33.21;48.44;;
66274;Laerm;58450;52.150;4.466;2023-07-20T02:21:32;38.04;33.02;49.04;;
66274;Laerm;58450;52.150;4.466;2023-07-20T02:23:59;38.36;33.08;47.77;;
66274;Laerm;58450;52.150;4.466;2023-07-20T02:26:27;38.44;33.00;54.36;;
66274;Laerm;58450;52.150;4.466;2023-07-20T02:28:55;43.32;33.34;64.83;;
66274;Laerm;58450;52.150;4.466;2023-07-20T02:31:23;40.73;33.49;54.16;;
66274;Laerm;58450;52.150;4.466;2023-07-20T02:33:50;38.30;33.22;47.93;;
66274;Laerm;58450;52.150;4.466;2023-07-20T02:36:18;39.17;32.94;48.44;;
66274;Laerm;58450;52.150;4.466;2023-07-20T02:38:47;39.06;33.51;52.28;;
66274;Laerm;58450;52.150;4.466;2023-07-20T02:41:15;38.25;33.29;47.95;;
66274;Laerm;58450;52.150;4.466;2023-07-20T02:43:42;38.41;32.45;47.74;;
66274;Laerm;58450;52.150;4.466;2023-07-20T02:46:10;38.92;33.35;56.20;;
66274;Laerm;58450;52.150;4.466;2023-07-20T02:48:38;39.37;33.49;51.59;;
66274;Laerm;58450;52.150;4.466;2023-07-20T02:51:05;38.58;33.52;48.27;;
66274;Laerm;58450;52.150;4.466;2023-07-20T02:53:33;38.58;33.33;50.00;;
66274;Laerm;58450;52.150;4.466;2023-07-20T02:56:03;40.53;33.65;56.64;;
66274;Laerm;58450;52.150;4.466;2023-07-20T02:58:33;41.34;33.85;65.79;;
66274;Laerm;58450;52.150;4.466;2023-07-20T03:01:03;48.56;34.16;66.06;;
66274;Laerm;58450;52.150;4.466;2023-07-20T03:03:30;40.44;34.04;50.43;;
66274;Laerm;58450;52.150;4.466;2023-07-20T03:05:58;40.40;33.92;51.67;;
66274;Laerm;58450;52.150;4.466;2023-07-20T03:08:27;39.45;34.07;48.79;;
66274;Laerm;58450;52.150;4.466;2023-07-20T03:10:54;40.07;34.28;48.26;;
66274;Laerm;58450;52.150;4.466;2023-07-20T03:13:23;40.43;34.23;54.94;;
66274;Laerm;58450;52.150;4.466;2023-07-20T03:15:52;39.93;34.18;50.19;;
66274;Laerm;58450;52.150;4.466;2023-07-20T03:18:19;44.13;34.25;65.37;;
66274;Laerm;58450;52.150;4.466;2023-07-20T03:20:47;42.78;34.38;60.24;;
66274;Laerm;58450;52.150;4.466;2023-07-20T03:23:15;41.39;34.96;55.38;;
66274;Laerm;58450;52.150;4.466;2023-07-20T03:25:43;48.06;35.32;65.60;;
66274;Laerm;58450;52.150;4.466;2023-07-20T03:28:10;51.67;36.16;68.35;;
66274;Laerm;58450;52.150;4.466;2023-07-20T03:30:39;43.07;35.04;59.43;;
66274;Laerm;58450;52.150;4.466;2023-07-20T03:33:07;40.86;35.24;53.76;;
66274;Laerm;58450;52.150;4.466;2023-07-20T03:35:34;41.87;35.38;57.42;;
66274;Laerm;58450;52.150;4.466;2023-07-20T03:38:02;43.19;34.82;64.32;;
66274;Laerm;58450;52.150;4.466;2023-07-20T03:40:30;41.71;35.17;52.74;;
66274;Laerm;58450;52.150;4.466;2023-07-20T03:42:58;45.54;35.23;59.87;;
66274;Laerm;58450;52.150;4.466;2023-07-20T03:45:26;41.31;35.53;55.01;;
66274;Laerm;58450;52.150;4.466;2023-07-20T03:47:55;45.97;36.16;60.39;;
66274;Laerm;58450;52.150;4.466;2023-07-20T03:50:22;46.91;35.10;64.36;;
66274;Laerm;58450;52.150;4.466;2023-07-20T03:52:50;42.88;35.32;55.84;;
66274;Laerm;58450;52.150;4.466;2023-07-20T03:55:18;43.22;36.44;53.45;;
66274;Laerm;58450;52.150;4.466;2023-07-20T03:57:46;41.21;35.99;49.75;;
66274;Laerm;58450;52.150;4.466;2023-07-20T04:00:17;43.28;36.36;57.82;;
66274;Laerm;58450;52.150;4.466;2023-07-20T04:02:45;42.14;35.95;58.50;;
66274;Laerm;58450;52.150;4.466;2023-07-20T04:05:14;43.29;35.94;58.06;;
66274;Laerm;58450;52.150;4.466;2023-07-20T04:07:41;42.41;35.19;54.08;;
66274;Laerm;58450;52.150;4.466;2023-07-20T04:10:10;43.21;35.75;57.07;;
66274;Laerm;58450;52.150;4.466;2023-07-20T04:12:37;42.38;35.69;53.12;;
66274;Laerm;58450;52.150;4.466;2023-07-20T04:15:07;47.65;35.90;62.65;;
66274;Laerm;58450;52.150;4.466;2023-07-20T04:17:34;42.86;35.02;54.79;;
66274;Laerm;58450;52.150;4.466;2023-07-20T04:20:03;46.56;35.47;60.81;;
66274;Laerm;58450;52.150;4.466;2023-07-20T04:22:33;43.06;34.26;58.92;;
66274;Laerm;58450;52.150;4.466;2023-07-20T04:25:01;43.93;35.06;59.14;;
66274;Laerm;58450;52.150;4.466;2023-07-20T04:27:28;45.91;35.05;63.60;;
66274;Laerm;58450;52.150;4.466;2023-07-20T04:29:58;42.83;35.65;66.60;;
66274;Laerm;58450;52.150;4.466;2023-07-20T04:32:26;46.68;35.68;62.38;;
66274;Laerm;58450;52.150;4.466;2023-07-20T04:34:53;41.87;35.72;56.26;;
66274;Laerm;58450;52.150;4.466;2023-07-20T04:37:21;45.97;35.96;59.82;;
66274;Laerm;58450;52.150;4.466;2023-07-20T04:39:50;44.18;35.36;55.48;;
66274;Laerm;58450;52.150;4.466;2023-07-20T04:42:18;48.21;36.18;62.79;;
66274;Laerm;58450;52.150;4.466;2023-07-20T04:44:46;46.18;35.97;60.99;;
66274;Laerm;58450;52.150;4.466;2023-07-20T04:47:14;48.89;36.11;69.03;;
66274;Laerm;58450;52.150;4.466;2023-07-20T04:49:41;47.14;36.92;62.23;;
66274;Laerm;58450;52.150;4.466;2023-07-20T04:52:09;57.59;39.77;70.47;;
66274;Laerm;58450;52.150;4.466;2023-07-20T04:54:37;44.43;36.90;59.80;;
66274;Laerm;58450;52.150;4.466;2023-07-20T04:57:12;43.53;37.67;56.59;;
66274;Laerm;58450;52.150;4.466;2023-07-20T04:59:39;48.51;37.61;66.35;;
66274;Laerm;58450;52.150;4.466;2023-07-20T05:02:07;48.69;37.84;68.81;;
66274;Laerm;58450;52.150;4.466;2023-07-20T05:04:35;50.98;39.62;70.95;;
66274;Laerm;58450;52.150;4.466;2023-07-20T05:07:02;55.33;38.61;69.10;;
66274;Laerm;58450;52.150;4.466;2023-07-20T05:09:30;45.28;38.72;62.49;;
66274;Laerm;58450;52.150;4.466;2023-07-20T05:11:58;48.07;38.40;63.99;;
66274;Laerm;58450;52.150;4.466;2023-07-20T05:14:27;57.11;40.63;69.99;;
66274;Laerm;58450;52.150;4.466;2023-07-20T05:16:54;47.52;39.34;64.80;;
66274;Laerm;58450;52.150;4.466;2023-07-20T05:19:22;52.09;41.36;65.67;;
66274;Laerm;58450;52.150;4.466;2023-07-20T05:21:51;52.00;41.30;59.70;;
66274;Laerm;58450;52.150;4.466;2023-07-20T05:24:19;55.07;42.96;63.91;;
66274;Laerm;58450;52.150;4.466;2023-07-20T05:26:48;55.38;48.86;64.27;;
66274;Laerm;58450;52.150;4.466;2023-07-20T05:29:15;54.82;43.80;66.72;;
66274;Laerm;58450;52.150;4.466;2023-07-20T05:31:44;56.25;41.44;74.45;;
66274;Laerm;58450;52.150;4.466;2023-07-20T05:34:12;54.92;42.66;62.13;;
66274;Laerm;58450;52.150;4.466;2023-07-20T05:36:39;56.91;45.18;65.32;;
66274;Laerm;58450;52.150;4.466;2023-07-20T05:39:07;57.11;44.27;66.76;;
66274;Laerm;58450;52.150;4.466;2023-07-20T05:41:35;57.34;48.86;66.12;;
66274;Laerm;58450;52.150;4.466;2023-07-20T05:44:03;55.19;40.28;69.42;;
66274;Laerm;58450;52.150;4.466;2023-07-20T05:46:30;49.31;39.42;69.25;;
66274;Laerm;58450;52.150;4.466;2023-07-20T05:48:59;49.74;39.17;65.84;;
66274;Laerm;58450;52.150;4.466;2023-07-20T05:51:28;53.63;39.41;78.02;;
66274;Laerm;58450;52.150;4.466;2023-07-20T05:53:55;52.78;40.16;68.23;;
66274;Laerm;58450;52.150;4.466;2023-07-20T05:56:23;52.39;44.58;64.49;;
66274;Laerm;58450;52.150;4.466;2023-07-20T05:58:50;51.61;39.43;69.51;;
66274;Laerm;58450;52.150;4.466;2023-07-20T06:01:18;52.35;42.01;66.07;;
66274;Laerm;58450;52.150;4.466;2023-07-20T06:03:46;53.49;42.78;72.62;;
66274;Laerm;58450;52.150;4.466;2023-07-20T06:06:15;50.72;41.99;60.87;;
66274;Laerm;58450;52.150;4.466;2023-07-20T06:08:43;51.34;43.05;61.32;;
66274;Laerm;58450;52.150;4.466;2023-07-20T06:11:11;54.57;43.19;76.66;;
66274;Laerm;58450;52.150;4.466;2023-07-20T06:13:38;52.24;45.52;63.23;;
66274;Laerm;58450;52.150;4.466;2023-07-20T06:16:06;51.15;45.61;60.15;;
66274;Laerm;58450;52.150;4.466;2023-07-20T06:18:33;52.12;46.44;62.29;;
66274;Laerm;58450;52.150;4.466;2023-07-20T06:21:01;49.60;42.96;66.62;;
66274;Laerm;58450;52.150;4.466;2023-07-20T06:23:30;50.73;42.65;61.06;;
66274;Laerm;58450;52.150;4.466;2023-07-20T06:25:58;48.62;41.87;60.64;;
66274;Laerm;58450;52.150;4.466;2023-07-20T06:28:25;48.97;41.73;59.93;;
66274;Laerm;58450;52.150;4.466;2023-07-20T06:30:59;46.66;39.77;62.28;;
66274;Laerm;58450;52.150;4.466;2023-07-20T06:33:27;47.95;39.42;63.43;;
66274;Laerm;58450;52.150;4.466;2023-07-20T06:35:55;53.91;42.20;68.96;;
66274;Laerm;58450;52.150;4.466;2023-07-20T06:38:24;49.46;41.32;60.47;;
66274;Laerm;58450;52.150;4.466;2023-07-20T06:40:53;46.52;40.08;58.46;;
66274;Laerm;58450;52.150;4.466;2023-07-20T06:43:21;50.24;39.51;66.11;;
66274;Laerm;58450;52.150;4.466;2023-07-20T06:45:51;47.52;39.73;63.48;;
66274;Laerm;58450;52.150;4.466;2023-07-20T06:48:20;50.39;40.48;62.70;;
66274;Laerm;58450;52.150;4.466;2023-07-20T06:50:48;48.93;40.05;60.81;;
66274;Laerm;58450;52.150;4.466;2023-07-20T06:53:16;52.06;40.62;66.60;;
66274;Laerm;58450;52.150;4.466;2023-07-20T06:55:44;49.85;44.06;62.39;;
66274;Laerm;58450;52.150;4.466;2023-07-20T06:58:13;53.80;43.34;68.53;;
66274;Laerm;58450;52.150;4.466;2023-07-20T07:00:40;49.98;41.20;65.57;;
66274;Laerm;58450;52.150;4.466;2023-07-20T07:03:08;49.58;39.70;64.40;;
66274;Laerm;58450;52.150;4.466;2023-07-20T07:05:36;47.95;39.36;68.94;;
66274;Laerm;58450;52.150;4.466;2023-07-20T07:08:05;49.62;40.24;67.63;;
66274;Laerm;58450;52.150;4.466;2023-07-20T07:10:34;47.85;39.81;64.02;;
66274;Laerm;58450;52.150;4.466;2023-07-20T07:13:03;53.72;38.96;75.54;;
66274;Laerm;58450;52.150;4.466;2023-07-20T07:15:33;55.60;44.44;71.79;;
66274;Laerm;58450;52.150;4.466;2023-07-20T07:18:01;55.23;46.85;70.68;;
66274;Laerm;58450;52.150;4.466;2023-07-20T07:20:29;52.45;47.65;69.74;;
66274;Laerm;58450;52.150;4.466;2023-07-20T07:22:57;51.58;46.58;67.19;;
66274;Laerm;58450;52.150;4.466;2023-07-20T07:25:25;52.93;47.17;63.37;;
66274;Laerm;58450;52.150;4.466;2023-07-20T07:27:53;52.51;47.65;70.90;;
66274;Laerm;58450;52.150;4.466;2023-07-20T07:30:22;53.74;47.05;73.37;;
66274;Laerm;58450;52.150;4.466;2023-07-20T07:32:51;54.20;47.33;69.67;;
66274;Laerm;58450;52.150;4.466;2023-07-20T07:35:18;52.34;46.36;66.78;;
66274;Laerm;58450;52.150;4.466;2023-07-20T07:37:46;51.62;45.55;62.19;;
66274;Laerm;58450;52.150;4.466;2023-07-20T07:40:14;53.20;47.58;65.81;;
66274;Laerm;58450;52.150;4.466;2023-07-20T07:42:41;54.58;47.60;63.75;;
66274;Laerm;58450;52.150;4.466;2023-07-20T07:45:09;50.99;45.54;65.42;;
66274;Laerm;58450;52.150;4.466;2023-07-20T07:47:37;54.95;45.89;79.39;;
66274;Laerm;58450;52.150;4.466;2023-07-20T07:50:08;49.74;40.79;64.16;;
66274;Laerm;58450;52.150;4.466;2023-07-20T07:52:36;50.34;45.34;59.76;;
66274;Laerm;58450;52.150;4.466;2023-07-20T07:55:05;53.00;45.75;61.74;;
66274;Laerm;58450;52.150;4.466;2023-07-20T07:57:33;52.91;43.87;64.45;;
66274;Laerm;58450;52.150;4.466;2023-07-20T08:00:01;49.88;42.08;66.18;;
66274;Laerm;58450;52.150;4.466;2023-07-20T08:02:30;50.89;41.05;69.85;;
66274;Laerm;58450;52.150;4.466;2023-07-20T08:04:58;50.58;43.00;66.48;;
66274;Laerm;58450;52.150;4.466;2023-07-20T08:07:28;49.67;41.95;66.44;;
66274;Laerm;58450;52.150;4.466;2023-07-20T08:09:56;53.70;43.75;69.89;;
66274;Laerm;58450;52.150;4.466;2023-07-20T08:12:24;53.07;43.20;62.67;;
66274;Laerm;58450;52.150;4.466;2023-07-20T08:14:51;54.59;42.31;71.28;;
66274;Laerm;58450;52.150;4.466;2023-07-20T08:17:19;51.99;41.11;67.00;;
66274;Laerm;58450;52.150;4.466;2023-07-20T08:19:47;50.59;40.56;69.58;;
66274;Laerm;58450;52.150;4.466;2023-07-20T08:22:15;48.17;40.05;61.30;;
66274;Laerm;58450;52.150;4.466;2023-07-20T08:24:44;49.64;42.00;66.82;;
66274;Laerm;58450;52.150;4.466;2023-07-20T08:27:11;50.01;43.18;62.72;;
66274;Laerm;58450;52.150;4.466;2023-07-20T08:29:39;49.41;41.80;63.77;;
66274;Laerm;58450;52.150;4.466;2023-07-20T08:32:07;50.22;41.93;61.68;;
66274;Laerm;58450;52.150;4.466;2023-07-20T08:34:35;48.11;41.55;60.43;;
66274;Laerm;58450;52.150;4.466;2023-07-20T08:37:03;52.11;42.55;67.91;;
66274;Laerm;58450;52.150;4.466;2023-07-20T08:39:31;50.06;44.93;60.56;;
66274;Laerm;58450;52.150;4.466;2023-07-20T08:42:01;53.25;46.02;64.77;;
66274;Laerm;58450;52.150;4.466;2023-07-20T08:44:33;54.14;48.01;62.97;;
66274;Laerm;58450;52.150;4.466;2023-07-20T08:47:02;55.66;46.70;68.81;;
66274;Laerm;58450;52.150;4.466;2023-07-20T08:49:31;53.54;47.57;68.36;;
66274;Laerm;58450;52.150;4.466;2023-07-20T08:51:59;53.73;46.95;66.99;;
66274;Laerm;58450;52.150;4.466;2023-07-20T08:54:30;52.63;45.81;63.36;;
66274;Laerm;58450;52.150;4.466;2023-07-20T08:57:03;55.48;48.87;63.51;;
66274;Laerm;58450;52.150;4.466;2023-07-20T08:59:32;55.03;49.38;74.61;;
66274;Laerm;58450;52.150;4.466;2023-07-20T09:02:02;53.24;48.16;66.20;;
66274;Laerm;58450;52.150;4.466;2023-07-20T09:04:30;50.57;45.36;60.50;;
66274;Laerm;58450;52.150;4.466;2023-07-20T09:06:57;51.41;45.93;63.96;;
66274;Laerm;58450;52.150;4.466;2023-07-20T09:09:25;51.06;45.30;64.07;;
66274;Laerm;58450;52.150;4.466;2023-07-20T09:11:53;50.09;44.83;62.97;;
66274;Laerm;58450;52.150;4.466;2023-07-20T09:14:23;51.93;44.05;71.86;;
66274;Laerm;58450;52.150;4.466;2023-07-20T09:16:53;51.02;44.22;64.03;;
66274;Laerm;58450;52.150;4.466;2023-07-20T09:19:22;52.60;47.92;63.60;;
66274;Laerm;58450;52.150;4.466;2023-07-20T09:21:51;50.50;41.04;63.05;;
66274;Laerm;58450;52.150;4.466;2023-07-20T09:24:19;50.45;44.82;62.03;;
66274;Laerm;58450;52.150;4.466;2023-07-20T09:26:48;53.19;44.59;63.30;;
66274;Laerm;58450;52.150;4.466;2023-07-20T09:29:19;57.80;47.13;73.63;;
66274;Laerm;58450;52.150;4.466;2023-07-20T09:32:00;60.32;54.87;70.82;;
66274;Laerm;58450;52.150;4.466;2023-07-20T09:34:29;60.51;54.74;68.40;;
66274;Laerm;58450;52.150;4.466;2023-07-20T09:36:58;58.06;50.37;68.54;;
66274;Laerm;58450;52.150;4.466;2023-07-20T09:39:26;51.53;41.71;65.87;;
66274;Laerm;58450;52.150;4.466;2023-07-20T09:41:54;53.13;42.40;65.02;;
66274;Laerm;58450;52.150;4.466;2023-07-20T09:44:22;51.90;43.66;70.19;;
66274;Laerm;58450;52.150;4.466;2023-07-20T09:46:50;55.30;44.14;66.82;;
66274;Laerm;58450;52.150;4.466;2023-07-20T09:49:19;54.86;43.06;68.91;;
66274;Laerm;58450;52.150;4.466;2023-07-20T09:51:48;50.83;40.78;65.20;;
66274;Laerm;58450;52.150;4.466;2023-07-20T09:54:18;50.61;41.47;66.84;;
66274;Laerm;58450;52.150;4.466;2023-07-20T09:56:48;51.20;39.58;70.01;;
66274;Laerm;58450;52.150;4.466;2023-07-20T09:59:18;50.01;40.41;67.37;;
66274;Laerm;58450;52.150;4.466;2023-07-20T10:01:47;49.66;41.61;62.62;;
66274;Laerm;58450;52.150;4.466;2023-07-20T10:04:20;51.88;44.05;65.67;;
66274;Laerm;58450;52.150;4.466;2023-07-20T10:06:52;49.70;41.92;64.03;;
66274;Laerm;58450;52.150;4.466;2023-07-20T10:09:24;48.23;41.15;63.14;;
66274;Laerm;58450;52.150;4.466;2023-07-20T10:11:53;53.13;41.43;69.95;;
66274;Laerm;58450;52.150;4.466;2023-07-20T10:14:23;55.17;45.05;67.96;;
66274;Laerm;58450;52.150;4.466;2023-07-20T10:16:55;49.91;42.43;66.58;;
66274;Laerm;58450;52.150;4.466;2023-07-20T10:19:38;51.40;42.60;66.35;;
66274;Laerm;58450;52.150;4.466;2023-07-20T10:22:14;52.77;44.50;65.62;;
66274;Laerm;58450;52.150;4.466;2023-07-20T10:24:47;53.93;45.82;66.91;;
66274;Laerm;58450;52.150;4.466;2023-07-20T10:27:14;53.92;44.06;74.98;;
66274;Laerm;58450;52.150;4.466;2023-07-20T10:29:42;49.57;43.05;63.10;;
66274;Laerm;58450;52.150;4.466;2023-07-20T10:32:11;52.60;45.46;66.58;;
66274;Laerm;58450;52.150;4.466;2023-07-20T10:34:41;50.65;43.93;63.52;;
66274;Laerm;58450;52.150;4.466;2023-07-20T10:37:08;49.90;43.52;63.40;;
66274;Laerm;58450;52.150;4.466;2023-07-20T10:39:36;49.30;42.53;64.76;;
66274;Laerm;58450;52.150;4.466;2023-07-20T10:42:07;51.97;42.58;66.80;;
66274;Laerm;58450;52.150;4.466;2023-07-20T10:44:37;51.28;42.23;70.75;;
66274;Laerm;58450;52.150;4.466;2023-07-20T10:47:10;49.44;39.01;65.03;;
66274;Laerm;58450;52.150;4.466;2023-07-20T10:50:02;52.91;38.81;69.71;;
66274;Laerm;58450;52.150;4.466;2023-07-20T10:52:37;49.92;40.80;64.52;;
66274;Laerm;58450;52.150;4.466;2023-07-20T10:55:11;49.98;40.62;65.78;;
66274;Laerm;58450;52.150;4.466;2023-07-20T10:57:39;50.65;40.37;66.86;;
66274;Laerm;58450;52.150;4.466;2023-07-20T11:00:10;49.11;42.51;63.07;;
66274;Laerm;58450;52.150;4.466;2023-07-20T11:02:47;47.31;41.18;62.79;;
66274;Laerm;58450;52.150;4.466;2023-07-20T11:05:37;47.14;41.19;58.33;;
66274;Laerm;58450;52.150;4.466;2023-07-20T11:08:11;50.93;42.27;61.97;;
66274;Laerm;58450;52.150;4.466;2023-07-20T11:10:39;49.36;42.07;63.83;;
66274;Laerm;58450;52.150;4.466;2023-07-20T11:13:21;53.94;43.96;71.18;;
66274;Laerm;58450;52.150;4.466;2023-07-20T11:16:03;49.73;42.11;67.44;;
66274;Laerm;58450;52.150;4.466;2023-07-20T11:18:34;50.84;42.00;64.05;;
66274;Laerm;58450;52.150;4.466;2023-07-20T11:21:09;52.46;41.32;81.38;;
66274;Laerm;58450;52.150;4.466;2023-07-20T11:23:39;58.89;45.96;85.45;;
66274;Laerm;58450;52.150;4.466;2023-07-20T11:26:07;59.27;50.99;82.04;;
66274;Laerm;58450;52.150;4.466;2023-07-20T11:28:36;55.39;48.16;79.75;;
66274;Laerm;58450;52.150;4.466;2023-07-20T11:31:03;51.13;45.61;70.44;;
66274;Laerm;58450;52.150;4.466;2023-07-20T11:33:31;50.32;45.89;58.20;;
66274;Laerm;58450;52.150;4.466;2023-07-20T11:35:59;51.33;46.12;73.25;;
66274;Laerm;58450;52.150;4.466;2023-07-20T11:38:28;54.99;45.99;76.44;;
66274;Laerm;58450;52.150;4.466;2023-07-20T11:40:56;52.06;44.64;66.60;;
66274;Laerm;58450;52.150;4.466;2023-07-20T11:43:24;53.35;47.83;62.90;;
66274;Laerm;58450;52.150;4.466;2023-07-20T11:45:52;48.76;41.74;67.34;;
66274;Laerm;58450;52.150;4.466;2023-07-20T11:48:20;49.94;41.39;62.08;;
66274;Laerm;58450;52.150;4.466;2023-07-20T11:50:48;51.59;44.49;69.36;;
66274;Laerm;58450;52.150;4.466;2023-07-20T11:53:16;51.59;43.77;64.36;;
66274;Laerm;58450;52.150;4.466;2023-07-20T11:55:46;52.47;42.91;63.20;;
66274;Laerm;58450;52.150;4.466;2023-07-20T11:58:14;49.94;44.44;58.65;;
66274;Laerm;58450;52.150;4.466;2023-07-20T12:00:44;48.96;43.31;58.04;;
66274;Laerm;58450;52.150;4.466;2023-07-20T12:03:12;51.26;44.44;62.75;;
66274;Laerm;58450;52.150;4.466;2023-07-20T12:05:40;48.46;42.16;59.07;;
66274;Laerm;58450;52.150;4.466;2023-07-20T12:08:08;49.17;41.73;60.07;;
66274;Laerm;58450;52.150;4.466;2023-07-20T12:10:39;48.68;42.99;64.90;;
66274;Laerm;58450;52.150;4.466;2023-07-20T12:13:11;51.89;45.93;64.10;;
66274;Laerm;58450;52.150;4.466;2023-07-20T12:15:39;54.31;43.68;64.04;;
66274;Laerm;58450;52.150;4.466;2023-07-20T12:18:07;54.26;47.29;62.56;;
66274;Laerm;58450;52.150;4.466;2023-07-20T12:20:37;53.77;47.92;68.47;;
66274;Laerm;58450;52.150;4.466;2023-07-20T12:23:10;53.93;46.02;66.47;;
66274;Laerm;58450;52.150;4.466;2023-07-20T12:25:38;53.07;44.89;66.61;;
66274;Laerm;58450;52.150;4.466;2023-07-20T12:28:08;53.72;46.05;64.82;;
66274;Laerm;58450;52.150;4.466;2023-07-20T12:30:38;54.00;45.76;67.88;;
66274;Laerm;58450;52.150;4.466;2023-07-20T12:33:07;52.83;42.35;74.19;;
66274;Laerm;58450;52.150;4.466;2023-07-20T12:35:35;52.08;45.00;71.67;;
66274;Laerm;58450;52.150;4.466;2023-07-20T12:38:02;54.55;42.86;74.42;;
66274;Laerm;58450;52.150;4.466;2023-07-20T12:40:31;53.76;46.98;69.20;;
66274;Laerm;58450;52.150;4.466;2023-07-20T12:42:58;55.99;47.78;68.81;;
66274;Laerm;58450;52.150;4.466;2023-07-20T12:45:27;52.33;45.82;67.33;;
66274;Laerm;58450;52.150;4.466;2023-07-20T12:47:56;52.73;47.88;67.62;;
66274;Laerm;58450;52.150;4.466;2023-07-20T12:50:23;53.05;46.36;64.46;;
66274;Laerm;58450;52.150;4.466;2023-07-20T12:52:51;53.82;47.66;62.89;;
66274;Laerm;58450;52.150;4.466;2023-07-20T12:55:19;51.65;44.51;61.74;;
66274;Laerm;58450;52.150;4.466;2023-07-20T12:57:47;53.91;48.28;68.74;;
66274;Laerm;58450;52.150;4.466;2023-07-20T13:00:16;61.17;50.20;70.43;;
66274;Laerm;58450;52.150;4.466;2023-07-20T13:02:44;54.08;46.90;62.41;;
66274;Laerm;58450;52.150;4.466;2023-07-20T13:05:13;53.57;45.78;61.39;;
66274;Laerm;58450;52.150;4.466;2023-07-20T13:07:41;54.46;47.72;67.14;;
66274;Laerm;58450;52.150;4.466;2023-07-20T13:10:11;55.46;46.78;62.34;;
66274;Laerm;58450;52.150;4.466;2023-07-20T13:12:39;56.90;45.32;65.47;;
66274;Laerm;58450;52.150;4.466;2023-07-20T13:15:09;56.65;45.60;67.05;;
66274;Laerm;58450;52.150;4.466;2023-07-20T13:17:38;51.86;43.22;61.76;;
66274;Laerm;58450;52.150;4.466;2023-07-20T13:20:10;53.04;43.37;61.18;;
66274;Laerm;58450;52.150;4.466;2023-07-20T13:22:40;51.17;39.79;61.22;;
66274;Laerm;58450;52.150;4.466;2023-07-20T13:25:08;54.92;42.25;67.72;;
66274;Laerm;58450;52.150;4.466;2023-07-20T13:27:37;56.98;48.95;65.65;;
66274;Laerm;58450;52.150;4.466;2023-07-20T13:30:06;53.97;45.83;60.94;;
66274;Laerm;58450;52.150;4.466;2023-07-20T13:32:36;52.79;45.57;61.12;;
66274;Laerm;58450;52.150;4.466;2023-07-20T13:35:05;55.20;45.80;70.82;;
66274;Laerm;58450;52.150;4.466;2023-07-20T13:37:33;50.45;44.68;64.45;;
66274;Laerm;58450;52.150;4.466;2023-07-20T13:40:02;53.96;43.05;66.50;;
66274;Laerm;58450;52.150;4.466;2023-07-20T13:42:31;56.53;46.13;72.07;;
66274;Laerm;58450;52.150;4.466;2023-07-20T13:44:59;55.09;45.99;62.21;;
66274;Laerm;58450;52.150;4.466;2023-07-20T13:47:27;56.29;42.79;67.33;;
66274;Laerm;58450;52.150;4.466;2023-07-20T13:49:55;54.62;46.26;73.82;;
66274;Laerm;58450;52.150;4.466;2023-07-20T13:52:23;53.72;46.46;68.62;;
66274;Laerm;58450;52.150;4.466;2023-07-20T13:54:50;50.27;43.68;57.35;;